Latest Weather Observations for Yanakie

IDV60801

Issued at 8:02 am EST Monday 3 August 2015 (issued every 30 minutes, with the page automatically refreshed every 10 minutes)

About weather observations | Map of weather stations | Latest weather observations for VIC | Other Formats
Station Details ID: 085301 Name: YANAKIE Lat: -38.81 Lon: 146.19 Height: 13.3 m
Data from the previous 72 hours. | See also: Recent months at Yanakie
Date/Time
EST
Temp
°C
App
Temp
°C
Dew
Point
Rel
Hum
%
Delta-T
°C
Wind Press
QNH
hPa
Press
MSL
hPa
Rain
since 9 am
mm
Dir
 
Spd
km/h
Gust
km/h
Spd
kts
Gust
kts
03/08:00am 6.9 -5.4 1.8 70 2.1 WSW 56 80 30 43 1011.8 1011.8 15.4
03/07:57am 6.9 -5.1 1.6 69 2.1 WSW 54 80 29 43 1011.6 1011.6 15.4
03/07:55am 7.0 -4.6 1.7 69 2.2 WSW 52 80 28 43 1011.4 1011.4 15.4
03/07:30am 7.0 -2.5 3.8 80 1.4 WSW 43 61 23 33 1010.5 1010.5 15.4
03/07:00am 5.4 -6.1 2.2 80 1.3 WSW 52 74 28 40 1010.7 1010.7 15.4
03/06:33am 6.1 -4.7 3.9 86 0.9 WSW 50 69 27 37 1009.6 1009.6 15.2
03/06:30am 6.0 -5.2 3.8 86 0.9 WSW 52 69 28 37 1009.6 1009.6 15.2
03/06:23am 6.2 -3.6 3.5 83 1.1 WSW 44 69 24 37 1009.7 1009.7 15.2
03/06:01am 6.7 -2.0 4.2 84 1.1 WSW 39 61 21 33 1008.8 1008.8 15.2
03/06:00am 6.7 -2.0 4.2 84 1.1 WSW 39 50 21 27 1009.0 1009.0 15.2
03/05:30am 6.5 -4.2 4.5 87 0.9 WSW 50 70 27 38 1008.7 1008.7 15.0
03/05:00am 7.6 -1.8 5.4 86 1.0 W 44 63 24 34 1008.1 1008.1 14.8
03/04:56am 8.0 -0.3 6.1 88 0.9 W 39 59 21 32 1007.8 1007.8 14.8
03/04:30am 7.3 -1.8 5.8 90 0.7 WSW 43 59 23 32 1007.9 1007.9 14.8
03/04:15am 7.7 -0.2 6.2 90 0.7 W 37 54 20 29 1007.8 1007.8 14.6
03/04:00am 7.6 -1.1 6.1 90 0.7 WNW 41 61 22 33 1007.3 1007.3 14.0
03/03:40am 7.8 -0.8 6.3 90 0.7 WNW 41 61 22 33 1006.6 1006.6 13.2
03/03:30am 7.5 -0.9 5.8 89 0.8 WNW 39 52 21 28 1007.0 1007.0 13.2
03/03:00am 7.1 -3.4 5.6 90 0.7 WNW 50 72 27 39 1006.8 1006.8 12.2
03/02:50am 7.4 -1.9 5.9 90 0.7 WNW 44 65 24 35 1007.1 1007.1 12.0
03/02:30am 7.7 -0.6 6.0 89 0.8 WNW 39 56 21 30 1007.2 1007.2 10.6
03/02:00am 8.4 -1.4 5.5 82 1.3 WNW 46 69 25 37 1006.6 1006.6 7.6
03/01:42am 8.8 -1.8 5.0 77 1.7 NW 50 70 27 38 1006.5 1006.5 7.0
03/01:30am 9.1 -1.8 5.3 77 1.7 NW 52 70 28 38 1006.3 1006.3 7.0
03/01:00am 8.8 -1.8 5.2 78 1.6 NW 50 74 27 40 1006.3 1006.3 7.0
03/12:34am 8.6 -2.0 5.2 79 1.5 NW 50 70 27 38 1006.5 1006.5 7.0
03/12:30am 8.7 -1.9 5.1 78 1.6 NW 50 67 27 36 1006.6 1006.6 7.0
03/12:00am 8.6 -0.6 5.5 81 1.4 NW 43 63 23 34 1006.9 1006.9 7.0
 
Date/Time
EST
Temp
°C
App
Temp
°C
Dew
Point
Rel
Hum
%
Delta-T
°C
Wind Press
QNH
hPa
Press
MSL
hPa
Rain
since 9 am
mm
Dir
 
Spd
km/h
Gust
km/h
Spd
kts
Gust
kts
02/11:36pm 8.5 -1.2 5.6 82 1.3 NW 46 67 25 36 1007.1 1007.1 7.0
02/11:30pm 8.6 -1.5 5.5 81 1.4 NW 48 65 26 35 1007.2 1007.2 7.0
02/11:01pm 8.7 -0.5 5.6 81 1.4 NW 43 63 23 34 1007.2 1007.2 7.0
02/11:00pm 8.5 -0.3 5.4 81 1.4 NW 41 57 22 31 1007.2 1007.2 7.0
02/10:35pm 8.7 -1.4 5.6 81 1.4 NW 48 78 26 42 1007.5 1007.5 7.0
02/10:30pm 8.7 -1.4 5.6 81 1.4 NW 48 65 26 35 1007.6 1007.6 7.0
02/10:03pm 8.6 0.3 6.1 84 1.1 NW 39 57 21 31 1007.5 1007.5 7.0
02/10:00pm 8.6 0.3 6.1 84 1.1 NW 39 56 21 30 1007.7 1007.7 7.0
02/09:30pm 8.6 0.7 6.4 86 1.0 NW 37 44 20 24 1008.1 1008.1 7.0
02/09:00pm 8.8 1.1 7.1 89 0.8 WNW 37 50 20 27 1008.2 1008.2 7.0
02/08:30pm 8.7 3.1 7.3 91 0.7 WNW 26 39 14 21 1008.2 1008.2 7.0
02/08:04pm 8.6 -0.2 7.2 91 0.7 W 43 61 23 33 1008.3 1008.3 7.0
02/08:00pm 8.7 0.0 7.5 92 0.6 W 43 61 23 33 1008.2 1008.2 7.0
02/07:36pm 8.8 2.9 7.7 93 0.5 WNW 28 48 15 26 1008.5 1008.5 6.0
02/07:30pm 8.7 4.0 7.6 93 0.5 W 22 33 12 18 1008.4 1008.4 6.0
02/07:00pm 8.8 3.3 7.7 93 0.5 WNW 26 37 14 20 1008.1 1008.1 5.2
02/06:30pm 8.5 3.0 7.4 93 0.5 W 26 39 14 21 1008.3 1008.3 5.2
02/06:00pm 8.6 3.4 7.4 92 0.6 WNW 24 39 13 21 1008.0 1008.0 4.6
02/05:30pm 8.4 1.7 7.3 93 0.5 W 32 43 17 23 1007.7 1007.7 4.4
02/05:17pm 8.4 0.7 7.3 93 0.5 W 37 50 20 27 1007.7 1007.7 4.4
02/05:00pm 8.7 3.6 7.6 93 0.5 WNW 24 32 13 17 1007.6 1007.6 3.8
02/04:31pm 8.7 2.4 7.3 91 0.7 W 30 48 16 26 1007.5 1007.5 3.2
02/04:30pm 8.6 1.9 7.2 91 0.7 W 32 48 17 26 1007.5 1007.5 3.2
02/04:00pm 9.4 0.7 6.1 80 1.5 WNW 41 63 22 34 1007.0 1007.0 0.6
02/03:32pm 11.9 2.5 5.5 65 3.0 NW 44 65 24 35 1005.7 1005.7 0.0
02/03:30pm 11.9 2.7 5.5 65 3.0 NW 43 59 23 32 1005.7 1005.7 0.0
02/03:00pm 11.8 2.4 5.4 65 3.0 NW 44 72 24 39 1005.6 1005.6 0.0
02/02:35pm 12.2 2.1 5.6 64 3.1 NW 48 69 26 37 1005.7 1005.7 0.0
02/02:30pm 11.5 0.4 4.7 63 3.1 NW 52 69 28 37 1005.7 1005.7 0.0
02/02:15pm 12.4 2.2 5.3 62 3.3 NW 48 67 26 36 1005.9 1005.9 0.0
02/02:00pm 12.2 1.6 5.1 62 3.3 NW 50 65 27 35 1005.9 1005.9 0.0
02/01:31pm 12.3 2.9 5.5 63 3.2 NW 44 63 24 34 1006.2 1006.2 0.0
02/01:30pm 12.1 2.3 5.3 63 3.1 NW 46 63 25 34 1006.2 1006.2 0.0
02/01:05pm 12.1 2.7 5.3 63 3.1 NW 44 63 24 34 1006.7 1006.7 0.0
02/01:00pm 11.9 2.1 5.1 63 3.1 NW 46 63 25 34 1006.7 1006.7 0.0
02/12:32pm 11.6 2.7 5.0 64 3.0 WNW 41 59 22 32 1007.4 1007.4 0.0
02/12:30pm 11.8 3.0 5.4 65 3.0 NW 41 57 22 31 1007.5 1007.5 0.0
02/12:03pm 11.4 3.3 5.1 65 2.9 NW 37 59 20 32 1008.2 1008.2 0.0
02/12:00pm 11.5 3.1 5.4 66 2.8 NW 39 54 21 29 1008.3 1008.3 0.0
02/11:30am 11.1 3.4 5.4 68 2.6 NW 35 50 19 27 1009.2 1009.2 0.0
02/11:00am 10.4 2.2 5.0 69 2.4 NW 37 57 20 31 1009.9 1009.9 0.0
02/10:47am 10.5 3.1 5.1 69 2.5 NW 33 54 18 29 1010.0 1010.0 0.0
02/10:30am 10.0 1.4 4.6 69 2.4 NW 39 52 21 28 1010.2 1010.2 0.0
02/10:00am 9.6 1.7 4.4 70 2.3 NW 35 50 19 27 1010.3 1010.3 0.0
02/09:30am 9.1 2.5 4.1 71 2.2 NW 28 44 15 24 1010.2 1010.2 0.0
02/09:00am 7.6 0.8 3.1 73 1.9 NW 28 39 15 21 1010.6 1010.6 0.4
02/08:30am 7.2 1.2 3.3 76 1.6 NW 24 35 13 19 1011.0 1011.0 0.4
02/08:00am 6.9 1.6 3.2 77 1.6 NW 20 32 11 17 1011.3 1011.3 0.4
02/07:30am 6.8 1.5 3.1 77 1.5 NW 20 30 11 16 1011.3 1011.3 0.4
02/07:00am 6.7 1.6 3.3 79 1.4 NW 19 26 10 14 1011.4 1011.4 0.4
02/06:30am 6.7 2.1 3.5 80 1.4 NW 17 24 9 13 1011.5 1011.5 0.4
02/06:00am 6.6 1.9 3.4 80 1.3 NW 17 22 9 12 1011.5 1011.5 0.4
02/05:30am 6.5 2.2 3.3 80 1.3 NW 15 20 8 11 1011.5 1011.5 0.4
02/05:00am 6.5 2.2 3.5 81 1.3 NW 15 19 8 10 1011.7 1011.7 0.4
02/04:30am 6.5 2.6 3.5 81 1.3 NW 13 19 7 10 1011.9 1011.9 0.4
02/04:00am 6.3 2.0 3.3 81 1.3 NW 15 17 8 9 1012.4 1012.4 0.4
02/03:30am 6.4 2.1 3.4 81 1.3 NW 15 20 8 11 1012.8 1012.8 0.4
02/03:00am 6.4 2.2 3.6 82 1.2 NW 15 20 8 11 1013.1 1013.1 0.4
02/02:30am 6.3 2.4 3.5 82 1.2 NW 13 19 7 10 1013.5 1013.5 0.4
02/02:00am 6.3 2.0 3.5 82 1.2 NW 15 19 8 10 1013.6 1013.6 0.4
02/01:30am 6.4 2.5 3.6 82 1.2 NW 13 17 7 9 1013.8 1013.8 0.4
02/01:00am 6.6 2.4 3.8 82 1.2 NW 15 19 8 10 1014.2 1014.2 0.4
02/12:30am 6.4 2.2 3.6 82 1.2 NW 15 20 8 11 1014.4 1014.4 0.4
02/12:00am 6.5 2.6 3.5 81 1.3 NW 13 19 7 10 1014.6 1014.6 0.4
 
Date/Time
EST
Temp
°C
App
Temp
°C
Dew
Point
Rel
Hum
%
Delta-T
°C
Wind Press
QNH
hPa
Press
MSL
hPa
Rain
since 9 am
mm
Dir
 
Spd
km/h
Gust
km/h
Spd
kts
Gust
kts
01/11:30pm 6.2 3.0 2.8 79 1.4 NW 9 13 5 7 1014.6 1014.6 0.4
01/11:00pm 6.8 2.5 3.1 77 1.5 NW 15 20 8 11 1014.7 1014.7 0.4
01/10:30pm 6.7 2.8 3.3 79 1.4 NW 13 19 7 10 1015.0 1015.0 0.4
01/10:00pm 6.4 2.9 3.4 81 1.3 NW 11 17 6 9 1015.0 1015.0 0.4
01/09:30pm 5.8 2.9 2.8 81 1.2 NW 7 11 4 6 1015.0 1015.0 0.4
01/09:00pm 5.8 2.9 2.6 80 1.3 NW 7 9 4 5 1015.2 1015.2 0.4
01/08:30pm 6.5 3.3 2.8 77 1.5 NW 9 11 5 6 1015.1 1015.1 0.4
01/08:00pm 7.4 3.2 3.6 77 1.6 NW 15 19 8 10 1015.1 1015.1 0.4
01/07:30pm 7.0 3.1 3.4 78 1.5 NW 13 17 7 9 1015.3 1015.3 0.4
01/07:00pm 7.5 4.1 3.9 78 1.5 NW 11 17 6 9 1015.1 1015.1 0.4
01/06:30pm 7.8 4.8 4.2 78 1.6 WNW 9 17 5 9 1015.0 1015.0 0.2
01/06:00pm 8.0 4.3 4.2 77 1.7 NW 13 17 7 9 1014.5 1014.5 0.2
01/05:30pm 7.7 4.2 3.6 75 1.8 WNW 11 13 6 7 1014.2 1014.2 0.2
01/05:00pm 8.7 5.4 4.3 74 1.9 WNW 11 15 6 8 1013.8 1013.8 0.2
01/04:30pm 8.9 3.9 4.5 74 1.9 WSW 20 30 11 16 1013.6 1013.6 0.2
01/04:00pm 10.3 5.3 3.6 63 2.9 W 19 28 10 15 1013.5 1013.5 0.2
01/03:30pm 10.4 4.0 3.2 61 3.1 W 26 33 14 18 1013.3 1013.3 0.2
01/03:00pm 10.4 3.7 3.4 62 3.1 W 28 37 15 20 1013.0 1013.0 0.2
01/02:30pm 11.1 4.0 3.6 60 3.3 W 30 39 16 21 1012.8 1012.8 0.2
01/02:00pm 10.7 3.7 4.0 63 3.0 W 30 37 16 20 1012.6 1012.6 0.2
01/01:30pm 10.8 3.4 4.0 63 3.0 W 32 39 17 21 1012.6 1012.6 0.2
01/01:00pm 11.1 3.8 4.6 64 2.9 WSW 32 41 17 22 1012.6 1012.6 0.2
01/12:30pm 10.5 3.0 3.5 62 3.1 WSW 32 41 17 22 1012.8 1012.8 0.2
01/12:00pm 10.3 3.0 4.7 68 2.5 WSW 32 43 17 23 1012.6 1012.6 0.2
01/11:30am 10.8 3.9 7.1 78 1.8 WSW 33 46 18 25 1012.6 1012.6 0.2
01/11:00am 9.8 4.8 8.2 90 0.8 W 24 35 13 19 1012.5 1012.5 0.2
01/10:30am 8.8 3.0 7.9 94 0.4 W 28 37 15 20 1012.1 1012.1 0.2
01/10:21am 8.3 1.0 7.4 94 0.4 WSW 35 54 19 29 1012.2 1012.2 0.2
01/10:00am 9.1 4.1 8.2 94 0.4 WSW 24 44 13 24 1011.6 1011.6 0.2
01/09:32am 8.7 2.1 7.9 95 0.4 WSW 32 52 17 28 1010.8 1010.8 0.2
01/09:30am 8.6 1.8 7.8 95 0.4 WSW 33 52 18 28 1010.8 1010.8 0.2
01/09:22am 8.8 2.3 8.0 95 0.4 WSW 32 52 17 28 1010.8 1010.8 0.0
01/09:00am 8.8 2.6 8.0 95 0.4 WSW 30 41 16 22 1010.2 1010.2 4.0
01/08:30am 8.8 0.9 7.9 94 0.4 WSW 39 54 21 29 1009.7 1009.7 3.8
01/08:03am 9.3 0.0 7.7 90 0.8 WNW 46 67 25 36 1009.0 1009.0 2.8
01/08:00am 9.6 0.4 7.9 89 0.8 WNW 46 67 25 36 1008.9 1008.9 2.6
01/07:59am 10.3 1.6 8.6 89 0.8 WNW 44 67 24 36 1008.8 1008.8 2.4
01/07:30am 11.0 3.8 9.1 88 0.9 NW 37 57 20 31 1007.0 1007.0 1.8
01/07:05am 11.2 3.5 8.8 85 1.2 NW 39 57 21 31 1006.2 1006.2 1.2
01/07:00am 11.3 3.2 8.7 84 1.3 NW 41 57 22 31 1006.0 1006.0 1.0
01/06:31am 12.1 3.4 8.6 79 1.7 NW 44 69 24 37 1005.6 1005.6 0.6
01/06:30am 12.1 3.4 8.4 78 1.8 NW 44 57 24 31 1005.7 1005.7 0.6
01/06:06am 13.2 4.6 8.3 72 2.4 NNW 43 63 23 34 1005.2 1005.2 0.2
01/06:00am 13.1 5.3 8.2 72 2.4 NNW 39 54 21 29 1005.1 1005.1 0.2
01/05:30am 12.5 6.2 7.6 72 2.4 NW 30 43 16 23 1005.2 1005.2 0.0
01/05:21am 12.7 6.8 7.4 70 2.6 NW 28 46 15 25 1005.3 1005.3 0.0
01/05:00am 13.2 6.3 7.2 67 2.9 NW 33 52 18 28 1005.6 1005.6 0.0
01/04:30am 12.9 5.4 6.3 64 3.1 NW 35 50 19 27 1005.6 1005.6 0.0
01/04:00am 12.0 5.7 5.6 65 3.0 NNW 28 43 15 23 1006.0 1006.0 0.0
01/03:30am 11.2 5.6 5.3 67 2.7 NW 24 35 13 19 1007.0 1007.0 0.0
01/03:00am 11.3 4.9 5.2 66 2.8 NNW 28 39 15 21 1007.2 1007.2 0.0
01/02:30am 11.0 4.9 4.9 66 2.8 NNW 26 35 14 19 1008.0 1008.0 0.0
01/02:00am 10.3 4.6 4.7 68 2.5 NNW 24 37 13 20 1009.1 1009.1 0.0
01/01:30am 9.7 4.6 4.3 69 2.4 NNW 20 30 11 16 1010.0 1010.0 0.0
01/01:00am 8.9 4.6 5.3 78 1.6 N 17 32 9 17 1010.9 1010.9 0.0
01/12:30am 7.3 5.1 5.3 87 0.9 NNE 6 9 3 5 1011.9 1011.9 0.0
01/12:00am 6.5 4.2 4.8 89 0.7 NNE 6 7 3 4 1013.0 1013.0 0.0
 
Date/Time
EST
Temp
°C
App
Temp
°C
Dew
Point
Rel
Hum
%
Delta-T
°C
Wind Press
QNH
hPa
Press
MSL
hPa
Rain
since 9 am
mm
Dir
 
Spd
km/h
Gust
km/h
Spd
kts
Gust
kts
31/11:30pm 6.2 3.9 5.0 92 0.5 N 6 7 3 4 1012.8 1012.8 0.0
31/11:00pm 3.9 1.6 2.7 92 0.5 N 4 4 2 2 1013.3 1013.3 0.0
31/10:30pm 3.6 0.9 2.4 92 0.5 WNW 6 6 3 3 1014.0 1014.0 0.0
31/10:00pm 3.5 0.7 2.3 92 0.5 NW 6 9 3 5 1014.2 1014.2 0.0
31/09:30pm 4.1 1.8 2.8 91 0.5 NNE 4 6 2 3 1014.4 1014.4 0.0
31/09:00pm 5.4 2.8 4.1 91 0.5 NNE 7 9 4 5 1014.8 1014.8 0.0
31/08:30pm 4.0 1.3 2.4 89 0.6 NNE 6 7 3 4 1014.7 1014.7 0.0
31/08:00pm 4.1 1.3 2.1 87 0.8 NNE 6 11 3 6 1015.1 1015.1 0.0
31/07:30pm 4.2 1.2 2.1 86 0.8 NE 7 9 4 5 1015.5 1015.5 0.0
31/07:00pm 4.2 2.5 1.7 84 1.0 CALM 0 0 0 0 1015.8 1015.8 0.0
31/06:30pm 4.5 2.7 1.5 81 1.2 CALM 0 0 0 0 1016.1 1016.1 0.0
31/06:00pm 5.6 3.9 1.9 77 1.5 CALM 0 0 0 0 1015.8 1015.8 0.0
31/05:30pm 7.4 5.9 3.1 74 1.8 CALM 0 0 0 0 1015.5 1015.5 0.0
31/05:00pm 9.4 7.4 4.6 72 2.1 W 4 6 2 3 1015.6 1015.6 0.0
31/04:30pm 9.5 7.0 4.5 71 2.2 WNW 7 11 4 6 1015.8 1015.8 0.0
31/04:00pm 10.6 6.2 4.5 66 2.7 NW 17 22 9 12 1016.1 1016.1 0.0
31/03:30pm 11.0 6.1 4.2 63 3.0 NW 19 26 10 14 1016.5 1016.5 0.0
31/03:00pm 11.6 7.7 5.3 65 2.9 NW 15 24 8 13 1016.7 1016.7 0.0
31/02:30pm 11.4 7.1 5.1 65 2.9 WNW 17 26 9 14 1017.1 1017.1 0.0
31/02:00pm 10.7 6.3 4.6 66 2.7 NW 17 22 9 12 1017.2 1017.2 0.0
31/01:30pm 9.8 5.4 4.6 70 2.3 WNW 17 24 9 13 1017.8 1017.8 0.0
31/01:00pm 11.7 6.9 5.8 67 2.7 WNW 20 30 11 16 1018.4 1018.4 0.0
31/12:30pm 11.4 6.3 6.1 70 2.5 WNW 22 30 12 16 1018.9 1018.9 0.0
31/12:00pm 11.3 6.3 6.6 73 2.2 WNW 22 30 12 16 1019.4 1019.4 0.0
31/11:30am 11.3 6.7 8.0 80 1.6 NW 22 28 12 15 1020.0 1020.0 0.0
31/11:00am 10.8 6.8 8.2 84 1.3 NW 19 24 10 13 1020.3 1020.3 0.0
31/10:30am 9.7 5.6 7.8 88 0.9 NW 19 28 10 15 1020.4 1020.4 0.0
31/10:00am 9.6 5.4 8.2 91 0.7 NW 20 28 11 15 1020.2 1020.2 0.0
31/09:30am 8.3 3.8 7.1 92 0.6 NW 20 28 11 15 1020.1 1020.1 0.0
31/09:00am 8.1 5.3 7.0 93 0.5 NNW 11 17 6 9 1019.9 1019.9 3.2
31/08:30am 7.4 4.5 6.3 93 0.5 NW 11 17 6 9 1019.8 1019.8 3.2

Other Formats:

Comma delimited format used in spreadsheet applications
http://www.bom.gov.au/fwo/IDV60801/IDV60801.94911.axf

JavaScript Object Notation format (JSON) in row-major order
http://www.bom.gov.au/fwo/IDV60801/IDV60801.94911.json